X  Schließen METAR Luftfahrt Wetterdaten        EDDR Saarbrücken
Temperatur
16°C Temperatur
15°C Taupunkt
94% Feuchtigkeit



Wind
4 km/h
2 MPS
1 M/S
2 KTS



-1°
VRB
Aktuelle Wetterlage

Mostly Clear Größtenteils klar
Luftdruck 1016 (hPa) - 29.99 (inHg)
Sichtweite 7 (Meile) - 11 (Km)
Flughafen
Flughafen Code EDDR

Position : Saarbrücken
Entfernung: 8 (Km)

Metar:
METAR EDDR 260320Z VRB02KT CAVOK 16/15 Q1016

Zeit: 26-09-2021 05:20 CEST